Time;durP1;ratioP1;P1;durP2;ratioP2;P2;SDS_P1;SDS_P2;PMS_P1;PMS_P2;Temp;Humidity;BMP_temperature;BMP_pressure;BME280_temperature;BME280_humidity;BME280_pressure;Samples;Min_cycle;Max_cycle;Signal;HPM_P1;HPM_P2
2023/05/02 00:00:54;;;;;;;45.03;23.47;;;;;;;5.77;100.00;100656.12;1731873;83;21219;-80
2023/05/02 00:03:58;;;;;;;41.65;22.02;;;;;;;5.76;100.00;100657.13;1733034;83;21192;-79
2023/05/02 00:07:05;;;;;;;48.80;24.47;;;;;;;5.77;100.00;100662.91;1733147;83;21782;-79
2023/05/02 00:10:10;;;;;;;50.83;24.20;;;;;;;5.84;100.00;100670.87;1685117;84;21249;-78
2023/05/02 00:13:16;;;;;;;51.40;25.12;;;;;;;5.80;100.00;100676.72;1684919;85;21284;-78
2023/05/02 00:16:23;;;;;;;52.45;25.82;;;;;;;5.78;100.00;100678.19;1684942;85;21202;-78
2023/05/02 00:19:28;;;;;;;47.88;23.90;;;;;;;5.74;100.00;100677.24;1670486;86;21287;-79
2023/05/02 00:22:34;;;;;;;41.58;24.43;;;;;;;5.69;100.00;100677.65;1685106;85;21201;-78
2023/05/02 00:25:40;;;;;;;45.15;23.57;;;;;;;5.69;100.00;100680.36;1684948;85;21208;-79
2023/05/02 00:28:46;;;;;;;47.38;23.67;;;;;;;5.67;100.00;100685.08;1684029;85;21225;-80
2023/05/02 00:31:51;;;;;;;39.55;23.77;;;;;;;5.63;100.00;100687.70;1683679;85;21816;-79
2023/05/02 00:34:56;;;;;;;47.65;23.55;;;;;;;5.62;100.00;100691.42;1684912;85;21241;-78
2023/05/02 00:38:03;;;;;;;41.18;23.15;;;;;;;5.63;100.00;100690.41;1682745;85;21221;-81
2023/05/02 00:41:08;;;;;;;41.15;21.12;;;;;;;5.61;100.00;100693.77;1682719;85;21202;-79
2023/05/02 00:44:14;;;;;;;39.92;21.90;;;;;;;5.55;100.00;100693.83;1669568;84;21237;-78
2023/05/02 00:47:21;;;;;;;46.68;22.60;;;;;;;5.58;100.00;100695.39;1696787;83;21209;-79
2023/05/02 00:50:20;;;;;;;43.68;23.65;;;;;;;5.50;100.00;100699.27;1670645;85;21210;-78
2023/05/02 00:53:13;;;;;;;46.20;22.95;;;;;;;5.53;100.00;100703.08;1696717;84;21252;-79
2023/05/02 00:56:00;;;;;;;44.45;21.93;;;;;;;5.50;100.00;100701.48;1733245;82;21160;-78
2023/05/02 00:58:52;;;;;;;40.90;22.40;;;;;;;5.52;100.00;100704.08;1731831;82;21208;-79
2023/05/02 01:02:24;;;;;;;35.43;21.15;;;;;;;5.49;100.00;100705.19;1732072;82;21771;-79
2023/05/02 01:05:37;;;;;;;38.13;21.45;;;;;;;5.52;100.00;100710.86;1732073;82;21184;-79
2023/05/02 01:09:06;;;;;;;39.83;21.80;;;;;;;5.52;100.00;100713.58;1732988;82;21183;-79
2023/05/02 01:12:37;;;;;;;41.02;23.10;;;;;;;5.48;100.00;100716.19;1732043;82;21188;-79
2023/05/02 01:15:44;;;;;;;41.18;23.90;;;;;;;5.47;100.00;100719.91;1732195;82;21851;-79
2023/05/02 01:18:50;;;;;;;34.65;22.17;;;;;;;5.47;100.00;100715.83;1733484;82;21540;-79
2023/05/02 01:21:56;;;;;;;45.88;23.52;;;;;;;5.51;100.00;100723.57;1733836;82;21221;-79
2023/05/02 01:25:09;;;;;;;45.30;24.30;;;;;;;5.48;100.00;100723.83;1733351;82;21180;-78
2023/05/02 01:28:51;;;;;;;40.23;22.67;;;;;;;5.53;100.00;100727.00;1733628;82;21184;-78
2023/05/02 01:31:48;;;;;;;39.63;23.20;;;;;;;5.55;100.00;100729.56;1733502;82;21224;-78
2023/05/02 01:34:34;;;;;;;35.25;22.45;;;;;;;5.63;100.00;100719.77;1733214;82;21184;-78
2023/05/02 01:37:28;;;;;;;43.95;24.85;;;;;;;5.72;100.00;100733.03;1733297;82;21182;-78
2023/05/02 01:40:35;;;;;;;43.93;22.13;;;;;;;5.73;100.00;100742.89;1733528;82;21511;-79
2023/05/02 01:43:42;;;;;;;35.33;21.57;;;;;;;5.73;100.00;100738.81;1734472;81;21165;-79
2023/05/02 01:46:49;;;;;;;44.00;22.17;;;;;;;5.74;100.00;100739.67;1743977;82;21240;-79
2023/05/02 01:49:55;;;;;;;40.12;21.85;;;;;;;5.73;100.00;100734.74;1743137;82;21790;-79
2023/05/02 01:53:00;;;;;;;37.67;22.13;;;;;;;5.69;100.00;100740.08;1744079;82;21184;-79
2023/05/02 01:56:06;;;;;;;29.77;19.27;;;;;;;5.67;100.00;100741.22;1744005;82;21223;-79
2023/05/02 01:59:14;;;;;;;39.73;22.15;;;;;;;5.63;100.00;100743.34;1743473;82;21195;-79
2023/05/02 02:02:20;;;;;;;34.65;21.37;;;;;;;5.57;100.00;100747.45;1743887;82;21188;-79
2023/05/02 02:05:27;;;;;;;34.45;19.57;;;;;;;5.52;100.00;100753.78;1742492;82;21718;-79
2023/05/02 02:08:33;;;;;;;37.67;20.00;;;;;;;5.50;100.00;100751.67;1744006;82;21180;-79
2023/05/02 02:11:46;;;;;;;35.80;21.65;;;;;;;5.49;100.00;100751.81;1742578;82;21235;-79
2023/05/02 02:14:56;;;;;;;35.48;20.88;;;;;;;5.50;100.00;100754.89;1743882;82;21212;-79
2023/05/02 02:18:14;;;;;;;36.93;20.92;;;;;;;5.29;100.00;100758.47;1744416;82;21231;-79
2023/05/02 02:21:20;;;;;;;38.78;21.50;;;;;;;5.25;100.00;100758.36;1743952;82;21180;-79
2023/05/02 02:24:25;;;;;;;39.70;21.48;;;;;;;5.25;100.00;100765.64;1743840;82;21718;-79
2023/05/02 02:27:25;;;;;;;31.82;20.25;;;;;;;5.26;100.00;100769.57;1743971;82;21144;-79
2023/05/02 02:30:30;;;;;;;32.78;20.55;;;;;;;5.26;100.00;100775.50;1742894;82;21215;-79
2023/05/02 02:33:38;;;;;;;40.05;22.87;;;;;;;5.28;100.00;100775.74;1743859;82;21188;-79
2023/05/02 02:36:50;;;;;;;37.15;22.00;;;;;;;5.31;100.00;100782.73;1744001;82;21191;-79
2023/05/02 02:40:29;;;;;;;38.58;21.87;;;;;;;5.44;100.00;100783.42;1743488;82;21230;-79
2023/05/02 02:43:52;;;;;;;39.48;20.65;;;;;;;5.60;100.00;100791.12;1744121;82;21184;-79
2023/05/02 02:47:08;;;;;;;36.68;20.95;;;;;;;5.73;100.00;100798.53;1752627;81;21175;-79
2023/05/02 02:50:53;;;;;;;36.70;20.88;;;;;;;5.83;100.00;100802.20;1753725;82;21183;-79
2023/05/02 02:54:27;;;;;;;40.12;21.97;;;;;;;6.04;100.00;100812.19;1754230;82;21836;-79
2023/05/02 02:57:43;;;;;;;33.00;19.48;;;;;;;6.25;100.00;100814.35;1754168;82;21176;-79
2023/05/02 03:00:49;;;;;;;37.35;19.07;;;;;;;6.48;100.00;100816.37;1752936;82;21251;-79
2023/05/02 03:03:56;;;;;;;29.77;17.75;;;;;;;6.75;100.00;100817.61;1752885;82;21167;-79
2023/05/02 03:07:02;;;;;;;27.22;16.42;;;;;;;6.97;100.00;100826.05;1754150;82;21223;-79
2023/05/02 03:10:10;;;;;;;30.97;17.15;;;;;;;7.12;100.00;100825.48;1754062;82;21278;-79
2023/05/02 03:13:16;;;;;;;33.18;20.00;;;;;;;7.32;100.00;100833.15;1754520;82;21183;-79
2023/05/02 03:16:45;;;;;;;35.90;21.42;;;;;;;7.38;100.00;100843.45;1754079;82;21214;-80
2023/05/02 03:19:51;;;;;;;34.40;20.62;;;;;;;7.38;100.00;100846.17;1752814;81;21219;-79
2023/05/02 03:22:57;;;;;;;32.20;18.30;;;;;;;7.36;100.00;100845.47;1754103;82;21719;-79
2023/05/02 03:26:03;;;;;;;32.53;19.02;;;;;;;7.36;100.00;100842.75;1753026;82;22485;-79
2023/05/02 03:29:08;;;;;;;34.70;17.32;;;;;;;7.46;100.00;100853.64;1754533;82;21756;-79
2023/05/02 03:32:12;;;;;;;27.32;16.93;;;;;;;7.58;100.00;100849.78;1753519;82;21215;-79
2023/05/02 03:35:18;;;;;;;27.85;17.75;;;;;;;7.73;100.00;100854.78;1754505;82;21227;-79
2023/05/02 03:38:23;;;;;;;36.68;17.15;;;;;;;7.88;100.00;100854.19;1754376;82;21219;-80
2023/05/02 03:41:31;;;;;;;35.40;16.50;;;;;;;8.08;100.00;100870.48;1753330;82;21864;-79
2023/05/02 03:44:38;;;;;;;29.32;17.12;;;;;;;8.09;100.00;100869.48;1754496;82;21182;-79
2023/05/02 03:47:44;;;;;;;27.13;15.45;;;;;;;8.10;100.00;100873.95;1734958;81;21212;-79
2023/05/02 03:50:49;;;;;;;28.73;15.68;;;;;;;8.10;100.00;100882.98;1732762;83;21144;-79
2023/05/02 03:53:57;;;;;;;26.77;14.50;;;;;;;8.14;100.00;100882.19;1733053;83;21185;-80
2023/05/02 03:57:03;;;;;;;29.67;14.93;;;;;;;8.19;100.00;100882.61;1733014;83;21184;-79
2023/05/02 04:00:09;;;;;;;21.40;13.55;;;;;;;8.23;100.00;100884.00;1732365;83;21219;-79
2023/05/02 04:03:16;;;;;;;21.25;13.53;;;;;;;8.36;100.00;100881.85;1732103;83;21204;-79
2023/05/02 04:06:25;;;;;;;23.05;13.05;;;;;;;8.51;100.00;100885.46;1733071;83;21224;-79
2023/05/02 04:09:32;;;;;;;20.25;12.40;;;;;;;8.73;100.00;100886.96;1733102;83;21208;-79
2023/05/02 04:12:38;;;;;;;24.43;13.08;;;;;;;8.83;100.00;100893.23;1733211;83;21168;-79
2023/05/02 04:15:44;;;;;;;25.90;13.75;;;;;;;8.99;100.00;100896.66;1733051;83;21173;-79
2023/05/02 04:18:51;;;;;;;25.57;14.15;;;;;;;9.17;100.00;100897.08;1731628;83;21212;-79
2023/05/02 04:21:57;;;;;;;25.50;13.83;;;;;;;9.32;100.00;100901.51;1732284;83;21205;-79
2023/05/02 04:25:05;;;;;;;23.73;13.95;;;;;;;9.46;100.00;100906.44;1733077;83;21161;-79
2023/05/02 04:28:12;;;;;;;25.62;13.80;;;;;;;9.59;100.00;100914.23;1732979;83;21240;-79
2023/05/02 04:31:18;;;;;;;26.30;14.15;;;;;;;9.73;100.00;100919.14;1732689;83;21184;-79
2023/05/02 04:34:17;;;;;;;23.73;14.10;;;;;;;9.85;99.50;100914.32;1733424;83;21192;-79
2023/05/02 04:37:23;;;;;;;28.65;13.93;;;;;;;9.94;98.81;100916.62;1733165;83;21216;-79
2023/05/02 04:40:28;;;;;;;25.60;14.15;;;;;;;10.06;98.16;100915.85;1732931;83;21168;-79
2023/05/02 04:43:34;;;;;;;25.60;13.35;;;;;;;10.18;98.07;100925.02;1733072;83;21184;-80
2023/05/02 04:46:40;;;;;;;22.93;13.65;;;;;;;10.40;97.61;100926.42;1732954;83;21172;-80
2023/05/02 04:49:47;;;;;;;29.48;13.58;;;;;;;10.53;96.91;100936.91;1734392;80;21475;-80
2023/05/02 04:52:53;;;;;;;28.52;14.75;;;;;;;10.61;95.75;100931.50;1740421;80;21170;-80
2023/05/02 04:55:59;;;;;;;25.00;13.08;;;;;;;10.73;94.99;100936.20;1731945;82;21188;-80
2023/05/02 04:59:06;;;;;;;24.37;13.83;;;;;;;10.86;93.61;100947.55;1734930;80;21176;-80
2023/05/02 05:02:11;;;;;;;25.37;13.58;;;;;;;10.98;93.00;100950.36;1765638;81;21204;-80
2023/05/02 05:05:10;;;;;;;19.82;12.70;;;;;;;11.09;92.64;100951.94;1774964;81;21224;-80
2023/05/02 05:08:17;;;;;;;19.70;10.90;;;;;;;11.16;92.06;100954.90;1770497;80;21260;-79
2023/05/02 05:11:23;;;;;;;24.32;12.65;;;;;;;11.28;91.01;100964.52;1712017;83;21266;-79
2023/05/02 05:14:30;;;;;;;20.50;11.53;;;;;;;11.35;91.52;100957.88;1731732;80;21759;-79
2023/05/02 05:17:35;;;;;;;25.02;10.45;;;;;;;11.45;90.93;100952.60;1741409;80;22418;-80
2023/05/02 05:20:40;;;;;;;21.82;10.18;;;;;;;11.58;90.03;100953.51;1741891;82;21220;-79
2023/05/02 05:23:46;;;;;;;21.25;10.75;;;;;;;11.67;89.24;100962.61;1726989;80;21179;-79
2023/05/02 05:26:53;;;;;;;20.20;10.55;;;;;;;11.78;88.41;100973.24;1735166;80;21925;-78
2023/05/02 05:29:59;;;;;;;16.62;8.85;;;;;;;11.87;87.50;100973.64;1737817;80;21173;-79
2023/05/02 05:33:06;;;;;;;23.32;9.28;;;;;;;11.98;86.00;100973.81;1725033;80;21241;-79
2023/05/02 05:36:16;;;;;;;20.08;7.97;;;;;;;12.12;85.52;100976.41;1696822;83;21197;-79
2023/05/02 05:39:24;;;;;;;21.68;9.18;;;;;;;12.24;82.01;100981.91;1745390;81;21184;-79
2023/05/02 05:42:30;;;;;;;13.03;7.53;;;;;;;12.32;82.16;100974.17;1756270;81;21233;-80
2023/05/02 05:45:37;;;;;;;14.83;7.25;;;;;;;12.42;82.70;100971.63;1704274;81;21228;-79
2023/05/02 05:48:44;;;;;;;13.35;5.62;;;;;;;12.51;80.52;100975.19;1735175;81;21260;-79
2023/05/02 05:51:51;;;;;;;11.18;5.62;;;;;;;12.61;77.94;100985.50;1731639;82;21255;-79
2023/05/02 05:54:56;;;;;;;9.83;5.30;;;;;;;12.66;77.92;100985.83;1743694;82;21504;-80
2023/05/02 05:58:01;;;;;;;10.95;6.17;;;;;;;12.74;76.21;100978.08;1736841;81;21231;-79
2023/05/02 06:01:08;;;;;;;11.80;5.85;;;;;;;12.86;75.63;100979.44;1746968;80;21862;-80
2023/05/02 06:04:15;;;;;;;6.47;4.20;;;;;;;12.99;76.38;100979.76;1750118;80;21187;-81
2023/05/02 06:07:21;;;;;;;9.15;4.00;;;;;;;13.06;70.31;100978.53;1736868;80;21840;-80
2023/05/02 06:10:26;;;;;;;10.38;4.33;;;;;;;13.05;69.86;100979.05;1744470;79;21217;-79
2023/05/02 06:13:32;;;;;;;7.95;4.00;;;;;;;13.05;71.01;100982.31;1734594;80;21179;-79
2023/05/02 06:16:37;;;;;;;9.80;4.65;;;;;;;13.07;69.32;100984.88;1732015;79;21171;-80
2023/05/02 06:19:42;;;;;;;14.58;4.90;;;;;;;13.12;69.28;100986.05;1747666;79;21243;-79
2023/05/02 06:22:49;;;;;;;9.75;4.42;;;;;;;13.20;70.26;100979.16;1741129;80;21313;-80
2023/05/02 06:25:57;;;;;;;5.92;2.90;;;;;;;13.34;70.40;100978.97;1748951;79;21140;-80
2023/05/02 06:29:02;;;;;;;4.85;2.17;;;;;;;13.47;68.80;100983.91;1741788;81;21152;-78
2023/05/02 06:32:08;;;;;;;3.45;1.95;;;;;;;13.50;63.43;100991.28;1745942;80;21192;-79
2023/05/02 06:35:15;;;;;;;6.03;1.80;;;;;;;13.48;58.74;100996.60;1747605;81;21187;-79
2023/05/02 06:38:20;;;;;;;3.08;1.60;;;;;;;13.42;58.60;100990.46;1759005;80;21172;-79
2023/05/02 06:41:26;;;;;;;4.10;2.33;;;;;;;13.39;59.32;100995.78;1757411;81;21160;-79
2023/05/02 06:44:33;;;;;;;5.92;2.30;;;;;;;13.40;59.47;100997.48;1773466;79;21205;-79
2023/05/02 06:47:40;;;;;;;6.33;2.00;;;;;;;13.42;59.47;100997.33;1748450;81;21191;-79
2023/05/02 06:50:46;;;;;;;5.15;1.82;;;;;;;13.52;61.80;101003.46;1733476;80;21176;-79
2023/05/02 06:53:51;;;;;;;4.12;1.85;;;;;;;13.54;56.32;101001.38;1740714;80;21239;-80
2023/05/02 06:56:57;;;;;;;4.37;1.80;;;;;;;13.53;59.04;101002.42;1736570;80;21172;-80
2023/05/02 07:00:03;;;;;;;7.75;2.05;;;;;;;13.57;58.06;101005.16;1747242;80;21193;-79
2023/05/02 07:03:14;;;;;;;11.53;1.77;;;;;;;13.61;57.74;101005.66;1739903;80;21211;-79
2023/05/02 07:06:17;;;;;;;3.62;1.50;;;;;;;13.69;57.37;101012.47;1690072;83;21816;-81
2023/05/02 07:09:26;;;;;;;2.65;1.42;;;;;;;13.77;55.86;101013.80;1735319;80;21183;-81
2023/05/02 07:12:33;;;;;;;2.15;1.52;;;;;;;13.91;55.73;101019.91;1739545;80;21783;-81
2023/05/02 07:15:38;;;;;;;3.40;1.45;;;;;;;13.93;52.02;101019.75;1742793;80;21212;-78
2023/05/02 07:18:44;;;;;;;4.17;1.55;;;;;;;13.93;50.13;101023.36;1737779;80;21195;-78
2023/05/02 07:21:51;;;;;;;9.03;1.80;;;;;;;13.92;51.75;101018.88;1740278;80;21176;-78
2023/05/02 07:25:07;;;;;;;4.83;1.95;;;;;;;13.99;52.72;101019.87;1744198;80;21216;-80
2023/05/02 07:28:14;;;;;;;1.98;1.72;;;;;;;14.04;51.28;101035.83;1730504;80;21160;-80
2023/05/02 07:31:20;;;;;;;2.55;1.37;;;;;;;14.05;50.24;101031.52;1737492;80;21236;-81
2023/05/02 07:34:26;;;;;;;3.52;1.92;;;;;;;14.10;51.04;101021.86;1738914;80;21187;-81
2023/05/02 07:37:31;;;;;;;2.62;1.60;;;;;;;14.19;49.06;101027.65;1726792;82;21235;-80
2023/05/02 07:40:37;;;;;;;5.83;1.25;;;;;;;14.23;49.36;101037.26;1739352;82;21251;-79
2023/05/02 07:43:42;;;;;;;15.95;1.80;;;;;;;14.24;48.64;101037.59;1737615;81;21280;-80
2023/05/02 07:46:49;;;;;;;2.98;1.80;;;;;;;14.26;49.40;101043.78;1740383;80;21204;-81
2023/05/02 07:49:58;;;;;;;3.95;1.27;;;;;;;14.17;47.97;101038.84;1738682;80;21463;-80
2023/05/02 07:53:03;;;;;;;2.75;1.50;;;;;;;14.17;48.20;101038.00;1737591;82;21235;-79
2023/05/02 07:56:12;;;;;;;3.10;1.35;;;;;;;14.27;49.91;101049.61;1742661;81;21176;-80
2023/05/02 07:59:17;;;;;;;3.12;1.30;;;;;;;14.29;49.98;101037.89;1735213;80;21225;-80
2023/05/02 08:02:22;;;;;;;4.22;1.75;;;;;;;14.24;48.85;101041.71;1728086;80;21203;-80
2023/05/02 08:05:28;;;;;;;9.08;1.87;;;;;;;14.17;49.85;101040.22;1688983;82;21894;-79
2023/05/02 08:08:33;;;;;;;2.02;1.52;;;;;;;14.18;50.14;101050.19;1680520;84;21799;-80
2023/05/02 08:11:40;;;;;;;4.65;1.50;;;;;;;14.24;49.24;101043.09;1685428;82;21795;-79
2023/05/02 08:14:46;;;;;;;2.47;1.30;;;;;;;14.33;47.39;101033.73;1687006;84;21863;-79
2023/05/02 08:17:51;;;;;;;6.58;1.60;;;;;;;14.45;50.53;101030.05;1693110;83;21268;-79
2023/05/02 08:21:00;;;;;;;4.65;1.32;;;;;;;14.51;46.56;101029.34;1701583;84;21879;-79
2023/05/02 08:24:02;;;;;;;3.35;1.40;;;;;;;14.52;46.86;101029.66;1697968;84;21228;-79
2023/05/02 08:27:16;;;;;;;3.05;1.32;;;;;;;14.38;44.18;101031.29;1671040;85;21200;-81
2023/05/02 08:30:15;;;;;;;2.37;1.25;;;;;;;14.32;46.56;101033.41;1692691;83;21285;-79
2023/05/02 08:33:20;;;;;;;3.55;1.35;;;;;;;14.36;45.53;101042.16;1701441;82;21173;-80
2023/05/02 08:36:29;;;;;;;4.42;1.50;;;;;;;14.33;44.54;101028.23;1702368;82;21216;-79
2023/05/02 08:39:36;;;;;;;3.60;1.50;;;;;;;14.33;45.82;101031.84;1696685;82;21236;-81
2023/05/02 08:42:43;;;;;;;9.10;1.12;;;;;;;14.39;46.22;101027.48;1704789;81;21982;-78
2023/05/02 08:45:50;;;;;;;2.70;1.20;;;;;;;14.42;46.45;101023.53;1701406;81;21329;-79
2023/05/02 08:48:57;;;;;;;1.22;0.95;;;;;;;14.37;45.93;101023.23;1715979;82;21181;-78
2023/05/02 08:52:03;;;;;;;5.03;1.10;;;;;;;14.35;46.45;101021.16;1696740;81;21247;-79
2023/05/02 08:55:08;;;;;;;4.60;1.35;;;;;;;14.33;46.78;101021.36;1694598;84;21220;-78
2023/05/02 08:58:16;;;;;;;8.65;1.37;;;;;;;14.36;45.14;101018.25;1690844;84;21213;-79
2023/05/02 09:01:26;;;;;;;6.35;1.37;;;;;;;14.35;45.12;101026.17;1706132;82;21232;-80
2023/05/02 09:04:35;;;;;;;7.65;1.37;;;;;;;14.33;44.55;101019.45;1710835;81;21185;-80
2023/05/02 09:07:56;;;;;;;5.75;1.52;;;;;;;14.31;44.71;101023.45;1694335;82;21248;-80
2023/05/02 09:11:00;;;;;;;11.88;1.60;;;;;;;14.26;44.40;101028.65;1690515;82;22457;-80
2023/05/02 09:14:06;;;;;;;2.52;1.20;;;;;;;14.26;44.82;101017.64;1704688;82;21195;-80
2023/05/02 09:17:11;;;;;;;4.05;1.55;;;;;;;14.28;44.23;101021.05;1689852;81;21192;-80
2023/05/02 09:20:22;;;;;;;2.47;1.32;;;;;;;14.35;44.05;101022.54;1701133;82;21326;-80
2023/05/02 09:23:39;;;;;;;1.65;1.12;;;;;;;14.43;44.15;101028.84;1695816;84;21224;-80
2023/05/02 09:26:45;;;;;;;3.45;1.27;;;;;;;14.46;44.99;101020.22;1685860;82;21877;-80
2023/05/02 09:29:52;;;;;;;1.52;1.20;;;;;;;14.50;44.42;101017.47;1691815;82;21831;-80
2023/05/02 09:33:00;;;;;;;5.62;1.60;;;;;;;14.52;45.81;101018.13;1709573;82;21191;-80
2023/05/02 09:36:06;;;;;;;2.12;1.30;;;;;;;14.59;45.87;101033.41;1690972;82;21768;-80
2023/05/02 09:39:24;;;;;;;4.75;1.37;;;;;;;14.60;45.37;101024.10;1702549;84;21819;-80
2023/05/02 09:42:39;;;;;;;4.97;1.17;;;;;;;14.61;44.36;101024.43;1694655;84;21205;-80
2023/05/02 09:45:44;;;;;;;3.05;1.20;;;;;;;14.60;42.92;101023.25;1707966;82;21253;-80
2023/05/02 09:49:02;;;;;;;2.37;1.10;;;;;;;14.62;45.14;101040.42;1703061;82;21197;-80
2023/05/02 09:52:23;;;;;;;3.33;1.20;;;;;;;14.64;42.22;101020.47;1700413;82;21786;-80
2023/05/02 09:55:29;;;;;;;4.28;0.88;;;;;;;14.61;43.19;101027.70;1704704;82;21189;-79
2023/05/02 09:58:34;;;;;;;2.75;1.20;;;;;;;14.62;42.27;101030.78;1634971;84;21961;-80
2023/05/02 10:01:39;;;;;;;6.72;1.30;;;;;;;14.62;40.50;101032.16;1670637;83;21201;-80
2023/05/02 10:04:46;;;;;;;5.55;1.30;;;;;;;14.68;40.62;101022.66;1671199;83;21165;-80
2023/05/02 10:07:53;;;;;;;1.45;0.90;;;;;;;14.73;39.43;101027.61;1625776;88;21234;-80
2023/05/02 10:11:02;;;;;;;3.17;1.25;;;;;;;14.73;41.99;101027.61;1671091;82;21209;-80
2023/05/02 10:14:08;;;;;;;4.50;1.70;;;;;;;14.75;42.71;101020.01;1670695;83;21213;-80
2023/05/02 10:17:28;;;;;;;3.52;1.45;;;;;;;14.81;41.71;101020.10;1672857;83;21185;-80
2023/05/02 10:20:38;;;;;;;4.87;1.12;;;;;;;14.86;40.90;101023.67;1667749;85;21256;-79
2023/05/02 10:23:47;;;;;;;4.87;1.20;;;;;;;14.95;43.62;101029.97;1669858;85;21225;-78
2023/05/02 10:26:54;;;;;;;5.33;1.12;;;;;;;15.00;44.16;101025.59;1667044;83;21470;-79
2023/05/02 10:29:59;;;;;;;7.12;1.10;;;;;;;15.00;42.65;101027.50;1678034;83;21291;-79
2023/05/02 10:33:07;;;;;;;5.75;1.60;;;;;;;15.01;43.48;101028.71;1675903;83;22080;-80
2023/05/02 10:36:13;;;;;;;2.37;1.20;;;;;;;15.09;41.88;101030.50;1671880;83;21296;-80
2023/05/02 10:39:23;;;;;;;3.58;1.42;;;;;;;15.13;42.85;101033.22;1676667;83;21764;-80
2023/05/02 10:42:26;;;;;;;9.20;1.75;;;;;;;15.16;43.12;101025.11;1640505;85;21157;-80
2023/05/02 10:45:41;;;;;;;7.58;1.60;;;;;;;15.21;41.47;101036.42;1686471;83;21141;-80
2023/05/02 10:48:47;;;;;;;8.58;1.55;;;;;;;15.19;40.56;101031.60;1668912;83;21166;-80
2023/05/02 10:51:52;;;;;;;3.20;1.47;;;;;;;15.17;41.76;101025.44;1671900;85;21183;-80
2023/05/02 10:54:58;;;;;;;6.90;2.45;;;;;;;15.19;41.22;101023.34;1703674;82;21184;-81
2023/05/02 10:58:09;;;;;;;6.12;1.90;;;;;;;15.20;42.96;101025.08;1712782;82;21228;-80
2023/05/02 11:01:39;;;;;;;5.10;2.12;;;;;;;15.24;41.43;101029.13;1726406;81;21170;-80
2023/05/02 11:05:08;;;;;;;4.50;1.65;;;;;;;15.28;38.86;101047.00;1713285;80;21172;-79
2023/05/02 11:08:31;;;;;;;;;;;;;;;15.30;39.16;101029.77;1692538;82;21173;-79
2023/05/02 11:11:51;;;;;;;10.00;2.50;;;;;;;15.32;38.35;101027.67;1688942;83;20242;-80
2023/05/02 11:14:57;;;;;;;10.20;2.10;;;;;;;15.34;37.69;101020.09;1661362;84;21209;-79
2023/05/02 11:18:15;;;;;;;16.77;2.37;;;;;;;15.34;37.55;101011.29;1694458;82;21225;-79
2023/05/02 11:21:39;;;;;;;7.92;2.10;;;;;;;15.38;37.29;101021.39;1669590;82;22304;-79
2023/05/02 11:24:50;;;;;;;11.30;1.80;;;;;;;15.38;38.05;101020.53;1672235;83;21248;-79
2023/05/02 11:27:57;;;;;;;6.80;2.08;;;;;;;15.39;38.26;101017.61;1676696;85;21221;-79
2023/05/02 11:31:03;;;;;;;4.40;2.00;;;;;;;15.39;36.73;101009.34;1679221;82;21237;-79
2023/05/02 11:34:10;;;;;;;3.62;2.00;;;;;;;15.36;38.10;101008.33;1681011;83;21217;-79
2023/05/02 11:37:20;;;;;;;16.40;2.50;;;;;;;15.39;37.10;101018.98;1676672;85;21506;-79
2023/05/02 11:40:27;;;;;;;10.80;2.30;;;;;;;15.38;36.60;101008.98;1671261;83;21253;-79
2023/05/02 11:43:33;;;;;;;3.20;1.82;;;;;;;15.38;36.10;101010.36;1676265;85;21212;-79
2023/05/02 11:46:39;;;;;;;9.83;1.87;;;;;;;15.42;37.46;101006.19;1680832;83;21253;-79
2023/05/02 11:49:44;;;;;;;14.35;2.17;;;;;;;15.48;37.58;101008.69;1677099;85;21189;-79
2023/05/02 11:52:51;;;;;;;12.07;2.10;;;;;;;15.51;35.92;101014.69;1694209;84;21221;-80
2023/05/02 11:55:58;;;;;;;7.10;2.22;;;;;;;15.51;35.78;101013.30;1696192;82;21271;-79
2023/05/02 11:59:07;;;;;;;7.72;1.82;;;;;;;15.52;36.83;101007.27;1692765;84;21209;-79
2023/05/02 12:02:12;;;;;;;7.25;2.05;;;;;;;15.52;36.51;101008.64;1694896;84;21217;-79
2023/05/02 12:05:20;;;;;;;6.00;2.83;;;;;;;15.51;36.55;101010.55;1707997;82;21193;-79
2023/05/02 12:08:32;;;;;;;10.35;2.22;;;;;;;15.51;37.23;101018.81;1688753;81;21249;-79
2023/05/02 12:11:38;;;;;;;7.37;2.10;;;;;;;15.51;37.20;101011.92;1671662;83;21269;-79
2023/05/02 12:14:45;;;;;;;5.72;2.10;;;;;;;15.52;36.75;101001.22;1681371;84;21498;-79
2023/05/02 12:17:56;;;;;;;8.58;2.17;;;;;;;15.53;37.41;101013.98;1696472;84;21213;-79
2023/05/02 12:21:01;;;;;;;6.60;1.90;;;;;;;15.53;35.96;101008.47;1686751;82;21206;-79
2023/05/02 12:24:09;;;;;;;4.28;1.62;;;;;;;15.52;35.86;101004.50;1712651;82;21566;-79
2023/05/02 12:27:20;;;;;;;6.35;1.80;;;;;;;15.49;35.49;101008.52;1685583;82;21237;-79
2023/05/02 12:30:37;;;;;;;8.10;1.72;;;;;;;15.47;36.33;101006.46;1677410;84;21213;-79
2023/05/02 12:33:51;;;;;;;10.43;1.77;;;;;;;15.48;36.47;101016.47;1680491;84;21217;-79
2023/05/02 12:36:52;;;;;;;3.30;1.57;;;;;;;15.46;36.16;101011.65;1692931;83;22303;-79
2023/05/02 12:39:58;;;;;;;5.10;1.80;;;;;;;15.45;37.11;101000.83;1673474;84;21257;-79
2023/05/02 12:43:09;;;;;;;12.35;2.98;;;;;;;15.42;36.84;100995.16;1693261;84;21166;-79
2023/05/02 12:46:17;;;;;;;3.10;1.60;;;;;;;15.42;37.14;100991.55;1690146;84;21178;-79
2023/05/02 12:49:23;;;;;;;4.33;1.80;;;;;;;15.43;37.31;101001.52;1685148;84;21201;-79
2023/05/02 12:52:58;;;;;;;4.17;2.50;;;;;;;15.43;37.94;100999.65;1684227;84;21225;-79
2023/05/02 12:56:10;;;;;;;4.35;1.90;;;;;;;15.46;38.03;101005.28;1698057;82;21232;-79
2023/05/02 12:59:16;;;;;;;5.00;1.85;;;;;;;15.49;38.44;101007.14;1668680;86;21228;-79
2023/05/02 13:02:23;;;;;;;5.72;1.50;;;;;;;15.50;38.31;101005.23;1669312;86;21272;-79
2023/05/02 13:05:28;;;;;;;5.45;1.87;;;;;;;15.50;38.74;101010.22;1669180;86;21740;-79
2023/05/02 13:08:35;;;;;;;5.83;2.37;;;;;;;15.49;37.97;101006.29;1686183;84;21213;-79
2023/05/02 13:11:41;;;;;;;6.50;1.92;;;;;;;15.48;38.32;101004.06;1696826;84;21824;-79
2023/05/02 13:14:48;;;;;;;5.20;1.70;;;;;;;15.48;38.74;101004.06;1697838;84;21272;-79
2023/05/02 13:17:53;;;;;;;3.30;1.82;;;;;;;15.48;38.40;101002.69;1698275;84;21201;-79
2023/05/02 13:20:59;;;;;;;8.03;2.37;;;;;;;15.48;37.77;101002.69;1698537;84;21252;-79
2023/05/02 13:24:05;;;;;;;5.15;1.70;;;;;;;15.47;38.63;101007.84;1698297;84;22092;-79
2023/05/02 13:27:11;;;;;;;6.35;2.22;;;;;;;15.44;39.78;101006.86;1697929;84;21260;-79
2023/05/02 13:30:17;;;;;;;3.35;1.90;;;;;;;15.45;39.14;101003.05;1697612;84;21201;-79
2023/05/02 13:33:23;;;;;;;9.75;2.05;;;;;;;15.45;39.34;101014.08;1698820;84;21173;-79
2023/05/02 13:36:28;;;;;;;6.22;1.95;;;;;;;15.42;39.94;101017.20;1698984;84;21181;-79
2023/05/02 13:39:34;;;;;;;13.05;2.05;;;;;;;15.49;38.96;101017.31;1697579;84;22136;-79
2023/05/02 13:42:39;;;;;;;4.47;2.02;;;;;;;15.52;38.90;101010.88;1693039;84;21269;-79
2023/05/02 13:45:47;;;;;;;3.62;1.87;;;;;;;15.39;38.14;101012.09;1686354;84;21763;-79
2023/05/02 13:48:53;;;;;;;3.25;1.50;;;;;;;15.32;39.25;101006.47;1686296;84;21213;-79
2023/05/02 13:51:59;;;;;;;5.58;2.00;;;;;;;15.29;38.94;101012.87;1678268;84;21204;-79
2023/05/02 13:55:03;;;;;;;7.85;2.05;;;;;;;15.29;39.08;101015.64;1678171;84;21276;-79
2023/05/02 13:58:03;;;;;;;9.00;1.42;;;;;;;15.29;39.33;101013.77;1701043;82;21216;-79
2023/05/02 14:01:08;;;;;;;6.42;1.80;;;;;;;15.31;39.35;101019.93;1700663;84;21260;-79
2023/05/02 14:04:15;;;;;;;4.70;1.57;;;;;;;15.31;38.84;101021.30;1699519;82;21814;-79
2023/05/02 14:07:22;;;;;;;3.77;1.50;;;;;;;15.30;39.79;101014.62;1696832;82;21176;-79
2023/05/02 14:10:27;;;;;;;2.92;1.50;;;;;;;15.29;40.03;101018.39;1687655;82;21184;-79
2023/05/02 14:13:32;;;;;;;4.87;1.90;;;;;;;15.30;39.41;101020.13;1703726;84;21224;-79
2023/05/02 14:16:39;;;;;;;8.63;1.72;;;;;;;15.29;37.98;101021.15;1685724;84;21213;-79
2023/05/02 14:19:46;;;;;;;3.40;1.57;;;;;;;15.27;38.50;101024.11;1679974;85;21208;-79
2023/05/02 14:22:52;;;;;;;4.10;1.37;;;;;;;15.27;40.03;101032.90;1705522;82;21264;-79
2023/05/02 14:25:58;;;;;;;4.78;1.62;;;;;;;15.28;39.90;101030.47;1679196;85;21212;-79